createdAt,value
2022-09-12T00:01:22.532Z,2.00
2022-09-12T00:03:54.140Z,2.10
2022-09-12T00:06:26.001Z,2.33
2022-09-12T00:08:57.418Z,1.98
2022-09-12T00:11:24.745Z,2.05
2022-09-12T00:13:52.393Z,2.47
2022-09-12T00:16:26.120Z,2.30
2022-09-12T00:18:53.938Z,2.42
2022-09-12T00:21:22.386Z,2.97
2022-09-12T00:23:50.727Z,2.50
2022-09-12T00:26:19.552Z,2.90
2022-09-12T00:28:46.978Z,2.70
2022-09-12T00:31:18.478Z,3.00
2022-09-12T00:33:45.983Z,3.33
2022-09-12T00:36:17.338Z,3.58
2022-09-12T00:38:45.713Z,3.20
2022-09-12T00:41:21.575Z,3.70
2022-09-12T00:43:57.008Z,4.13
2022-09-12T00:46:36.354Z,3.60
2022-09-12T00:49:13.175Z,4.47
2022-09-12T00:51:45.903Z,3.70
2022-09-12T00:54:18.867Z,4.35
2022-09-12T00:56:47.304Z,4.00
2022-09-12T00:59:21.508Z,4.25
2022-09-12T01:01:52.115Z,4.22
2022-09-12T01:04:22.627Z,4.75
2022-09-12T01:06:50.852Z,4.25
2022-09-12T01:09:22.527Z,4.53
2022-09-12T01:11:52.234Z,5.05
2022-09-12T01:14:20.369Z,4.45
2022-09-12T01:16:49.094Z,5.32
2022-09-12T01:19:53.186Z,6.25
2022-09-12T01:22:50.863Z,6.45
2022-09-12T01:26:14.553Z,5.53
2022-09-12T01:29:03.035Z,5.30
2022-09-12T01:31:42.489Z,5.88
2022-09-12T01:34:12.272Z,6.72
2022-09-12T01:37:05.339Z,6.60
2022-09-12T01:39:51.682Z,6.55
2022-09-12T01:42:30.762Z,5.90
2022-09-12T01:45:14.746Z,6.60
2022-09-12T01:47:50.764Z,6.38
2022-09-12T01:50:27.829Z,7.50
2022-09-12T01:53:07.088Z,6.85
2022-09-12T01:55:44.505Z,6.72
2022-09-12T01:58:21.724Z,6.25
2022-09-12T02:01:10.393Z,6.45
2022-09-12T02:03:48.245Z,7.25
2022-09-12T02:06:27.738Z,7.47
2022-09-12T02:09:04.300Z,7.28
2022-09-12T02:11:35.919Z,8.38
2022-09-12T02:14:12.523Z,7.22
2022-09-12T02:16:52.603Z,7.57
2022-09-12T02:19:25.779Z,7.47
2022-09-12T02:21:56.952Z,7.70
2022-09-12T02:24:30.323Z,7.10
2022-09-12T02:27:07.219Z,7.80
2022-09-12T02:29:34.040Z,7.20
2022-09-12T02:32:21.342Z,7.40
2022-09-12T02:35:16.069Z,8.45
2022-09-12T02:38:00.261Z,8.27
2022-09-12T02:40:28.229Z,8.15
2022-09-12T02:42:55.388Z,7.60
2022-09-12T02:45:23.465Z,7.55
2022-09-12T02:48:00.535Z,7.60
2022-09-12T02:50:28.472Z,8.00
2022-09-12T02:52:59.829Z,6.82
2022-09-12T02:55:30.700Z,8.00
2022-09-12T02:57:57.567Z,7.00
2022-09-12T03:00:25.489Z,7.85
2022-09-12T03:03:07.408Z,7.32
2022-09-12T03:05:44.042Z,7.97
2022-09-12T03:08:57.077Z,7.72
2022-09-12T03:12:12.023Z,7.05
2022-09-12T03:14:54.580Z,6.38
2022-09-12T03:17:49.026Z,7.00
2022-09-12T03:20:39.427Z,6.72
2022-09-12T03:23:20.461Z,6.93
2022-09-12T03:25:59.369Z,6.55
2022-09-12T03:28:27.296Z,8.30
2022-09-12T03:30:56.609Z,7.50
2022-09-12T03:33:25.872Z,7.53
2022-09-12T03:35:53.778Z,7.38
2022-09-12T03:38:20.704Z,7.75
2022-09-12T03:40:51.395Z,6.82
2022-09-12T03:43:20.952Z,7.40
2022-09-12T03:45:52.471Z,6.78
2022-09-12T03:48:19.633Z,8.13
2022-09-12T03:50:46.461Z,7.82
2022-09-12T03:53:17.070Z,5.85
2022-09-12T03:55:44.685Z,7.70
2022-09-12T03:58:11.836Z,7.82
2022-09-12T04:00:39.847Z,6.10
2022-09-12T04:03:06.690Z,6.72
2022-09-12T04:05:33.471Z,7.65
2022-09-12T04:08:00.220Z,6.57
2022-09-12T04:10:27.044Z,6.10
2022-09-12T04:12:53.832Z,7.47
2022-09-12T04:15:20.726Z,7.22
2022-09-12T04:17:47.672Z,6.93
2022-09-12T04:20:14.891Z,6.22
2022-09-12T04:22:41.700Z,6.82
2022-09-12T04:25:09.709Z,6.50
2022-09-12T04:27:36.485Z,6.70
2022-09-12T04:30:04.901Z,6.45
2022-09-12T04:32:31.905Z,5.57
2022-09-12T04:34:58.772Z,6.30
2022-09-12T04:37:25.563Z,5.85
2022-09-12T04:39:57.763Z,5.68
2022-09-12T04:42:24.882Z,6.70
2022-09-12T04:44:52.257Z,5.80
2022-09-12T04:47:19.219Z,6.20
2022-09-12T04:49:45.974Z,5.93
2022-09-12T04:52:12.722Z,7.10
2022-09-12T04:54:40.400Z,6.60
2022-09-12T04:57:07.242Z,7.38
2022-09-12T04:59:34.099Z,6.68
2022-09-12T05:02:00.965Z,6.95
2022-09-12T05:04:27.945Z,6.45
2022-09-12T05:06:54.811Z,6.60
2022-09-12T05:09:21.535Z,6.35
2022-09-12T05:12:05.254Z,6.85
2022-09-12T05:14:33.954Z,7.68
2022-09-12T05:17:02.225Z,7.15
2022-09-12T05:19:31.228Z,6.95
2022-09-12T05:21:59.129Z,7.20
2022-09-12T05:24:26.394Z,6.82
2022-09-12T05:26:53.343Z,6.10
2022-09-12T05:29:20.211Z,6.55
2022-09-12T05:31:48.505Z,6.47
2022-09-12T05:34:15.515Z,6.40
2022-09-12T05:36:42.361Z,7.40
2022-09-12T05:39:09.115Z,6.45
2022-09-12T05:41:37.410Z,5.75
2022-09-12T05:44:07.308Z,6.45
2022-09-12T05:46:40.702Z,5.75
2022-09-12T05:49:11.474Z,7.13
2022-09-12T05:51:41.862Z,7.47
2022-09-12T05:54:12.482Z,6.00
2022-09-12T05:56:44.604Z,5.68
2022-09-12T05:59:18.736Z,5.97
2022-09-12T06:01:46.101Z,6.57
2022-09-12T06:04:13.395Z,6.07
2022-09-12T06:06:45.174Z,6.72
2022-09-12T06:09:14.618Z,6.00
2022-09-12T06:11:41.584Z,6.43
2022-09-12T06:14:11.667Z,7.40
2022-09-12T06:16:39.266Z,5.82
2022-09-12T06:19:19.114Z,6.63
2022-09-12T06:21:48.639Z,6.22
2022-09-12T06:24:17.895Z,6.65
2022-09-12T06:26:45.623Z,5.50
2022-09-12T06:29:13.340Z,6.57
2022-09-12T06:31:42.450Z,5.82
2022-09-12T06:34:13.586Z,6.10
2022-09-12T06:36:43.668Z,5.32
2022-09-12T06:39:17.025Z,6.10
2022-09-12T06:41:45.140Z,5.32
2022-09-12T06:44:21.503Z,5.80
2022-09-12T06:46:49.009Z,6.38
2022-09-12T06:49:15.952Z,5.10
2022-09-12T06:51:43.385Z,5.97
2022-09-12T06:54:14.671Z,5.90
2022-09-12T06:56:41.703Z,6.35
2022-09-12T06:59:08.749Z,6.47
2022-09-12T07:01:35.596Z,6.15
2022-09-12T07:04:04.516Z,6.15
2022-09-12T07:06:41.072Z,5.95
2022-09-12T07:09:13.153Z,5.63
2022-09-12T07:11:41.990Z,6.10
2022-09-12T07:14:13.071Z,5.10
2022-09-12T07:16:40.312Z,5.05
2022-09-12T07:19:08.672Z,5.60
2022-09-12T07:21:40.650Z,5.50
2022-09-12T07:24:10.521Z,5.72
2022-09-12T07:26:39.024Z,4.65
2022-09-12T07:29:34.851Z,5.22
2022-09-12T07:31:52.623Z,5.10
2022-09-12T07:34:19.406Z,4.50
2022-09-12T07:36:46.424Z,5.63
2022-09-12T07:39:13.199Z,5.00
2022-09-12T07:41:40.296Z,4.55
2022-09-12T07:44:07.728Z,4.35
2022-09-12T07:46:35.328Z,4.95
2022-09-12T07:49:03.102Z,4.57
2022-09-12T07:51:31.770Z,4.20
2022-09-12T07:53:58.894Z,4.10
2022-09-12T07:56:32.698Z,4.10
2022-09-12T07:59:01.496Z,3.88
2022-09-12T08:01:28.304Z,3.67
2022-09-12T08:04:00.385Z,4.00
2022-09-12T08:06:32.246Z,4.18
2022-09-12T08:09:00.157Z,4.18
2022-09-12T08:11:29.423Z,4.63
2022-09-12T08:13:58.179Z,3.58
2022-09-12T08:16:28.760Z,4.70
2022-09-12T08:18:55.820Z,3.92
2022-09-12T08:21:26.054Z,3.78
2022-09-12T08:23:56.471Z,3.33
2022-09-12T08:26:24.627Z,3.63
2022-09-12T08:28:51.810Z,3.58
2022-09-12T08:31:21.856Z,4.05
2022-09-12T08:33:48.712Z,3.80
2022-09-12T08:36:21.505Z,3.28
2022-09-12T08:38:53.681Z,3.20
2022-09-12T08:41:46.792Z,2.95
2022-09-12T08:44:47.117Z,3.22
2022-09-12T08:47:33.753Z,2.80
2022-09-12T08:50:12.197Z,3.03
2022-09-12T08:53:04.255Z,3.20
2022-09-12T08:55:44.888Z,2.78
2022-09-12T08:58:13.258Z,2.90
2022-09-12T09:01:08.945Z,2.70
2022-09-12T09:04:01.856Z,2.72
2022-09-12T09:07:05.820Z,1.92
2022-09-12T09:09:57.268Z,2.35
2022-09-12T09:12:34.603Z,2.08
2022-09-12T09:15:24.931Z,2.35
2022-09-12T09:18:00.674Z,1.90
2022-09-12T09:20:36.763Z,1.77
2022-09-12T09:23:32.090Z,1.65
2022-09-12T09:26:22.570Z,2.05
2022-09-12T09:28:55.773Z,1.88
2022-09-12T09:31:26.637Z,1.73
2022-09-12T09:33:55.566Z,1.60
2022-09-12T09:36:47.093Z,1.70
2022-09-12T09:39:45.137Z,1.67
2022-09-12T09:42:25.038Z,1.63
2022-09-12T09:44:54.528Z,1.42
2022-09-12T09:47:21.583Z,1.70
2022-09-12T09:49:48.344Z,1.60
2022-09-12T09:52:25.164Z,1.77
2022-09-12T09:55:01.949Z,1.52
2022-09-12T09:57:41.387Z,1.30
2022-09-12T10:00:37.964Z,1.70
2022-09-12T10:03:13.813Z,1.48
2022-09-12T10:05:55.607Z,1.38
2022-09-12T10:08:41.292Z,1.45
2022-09-12T10:11:23.475Z,2.17
2022-09-12T10:14:00.112Z,1.98
2022-09-12T10:16:52.848Z,1.70
2022-09-12T10:19:34.177Z,1.80
2022-09-12T10:22:02.412Z,1.75
2022-09-12T10:24:43.710Z,1.60
2022-09-12T10:27:21.043Z,1.73
2022-09-12T10:29:54.799Z,1.73
2022-09-12T10:32:31.152Z,1.67
2022-09-12T10:35:05.946Z,1.80
2022-09-12T10:37:42.345Z,1.52
2022-09-12T10:40:25.458Z,1.75
2022-09-12T10:42:56.469Z,1.67
2022-09-12T10:45:36.695Z,1.80
2022-09-12T10:48:35.763Z,1.38
2022-09-12T10:51:02.966Z,1.80
2022-09-12T10:53:40.968Z,1.80
2022-09-12T10:56:24.170Z,1.63
2022-09-12T10:59:14.698Z,2.00
2022-09-12T11:01:58.059Z,1.90
2022-09-12T11:05:00.307Z,1.70
2022-09-12T11:07:44.205Z,1.80
2022-09-12T11:10:45.660Z,2.22
2022-09-12T11:14:12.772Z,1.83
2022-09-12T11:19:39.703Z,2.15
2022-09-12T11:22:34.247Z,1.92
2022-09-12T11:25:23.058Z,2.10
2022-09-12T11:28:06.234Z,2.13
2022-09-12T11:31:29.685Z,1.90
2022-09-12T11:33:58.999Z,1.90
2022-09-12T11:37:09.888Z,1.90
2022-09-12T11:39:44.060Z,1.92
2022-09-12T11:42:20.878Z,2.22
2022-09-12T11:45:06.291Z,2.00
2022-09-12T11:47:35.556Z,2.05
2022-09-12T11:50:16.298Z,2.10
2022-09-12T11:52:43.249Z,2.35
2022-09-12T11:55:20.230Z,2.33
2022-09-12T11:57:56.856Z,2.40
2022-09-12T12:00:44.436Z,2.15
2022-09-12T12:03:27.625Z,2.70
2022-09-12T12:06:19.816Z,2.70
2022-09-12T12:08:48.947Z,2.75
2022-09-12T12:11:32.776Z,2.83
2022-09-12T12:14:07.194Z,2.80
2022-09-12T12:16:39.148Z,2.75
2022-09-12T12:19:15.131Z,2.83
2022-09-12T12:21:50.260Z,3.17
2022-09-12T12:27:05.712Z,3.90
2022-09-12T12:29:35.352Z,4.30
2022-09-12T12:32:05.821Z,3.92
2022-09-12T12:34:40.383Z,4.25
2022-09-12T12:37:19.252Z,4.25
2022-09-12T12:39:46.984Z,4.22
2022-09-12T12:42:35.638Z,3.97
2022-09-12T12:45:20.539Z,3.58
2022-09-12T12:48:11.462Z,3.72
2022-09-12T12:50:38.380Z,2.80
2022-09-12T12:53:19.713Z,3.20
2022-09-12T12:55:52.370Z,3.03
2022-09-12T12:58:39.671Z,3.17
2022-09-12T13:01:23.082Z,2.50
2022-09-12T13:04:12.994Z,2.60
2022-09-12T13:06:47.214Z,2.53
2022-09-12T13:09:31.646Z,2.30
2022-09-12T13:12:04.586Z,2.30
2022-09-12T13:14:43.829Z,2.20
2022-09-12T13:17:28.896Z,2.13
2022-09-12T13:20:28.388Z,2.00
2022-09-12T13:22:56.912Z,2.35
2022-09-12T13:25:35.495Z,1.80
2022-09-12T13:28:11.519Z,1.85
2022-09-12T13:30:46.377Z,1.85
2022-09-12T13:33:36.912Z,1.90
2022-09-12T13:36:19.106Z,2.15
2022-09-12T13:39:30.099Z,1.98
2022-09-12T13:42:41.156Z,2.50
2022-09-12T13:45:22.939Z,2.42
2022-09-12T13:48:04.597Z,2.42
2022-09-12T13:50:40.907Z,2.65
2022-09-12T13:53:17.065Z,2.60
2022-09-12T13:55:50.362Z,2.83
2022-09-12T13:58:24.839Z,2.78
2022-09-12T14:01:10.271Z,2.60
2022-09-12T14:06:46.739Z,2.70
2022-09-12T14:09:20.721Z,2.85
2022-09-12T14:11:52.228Z,2.80
2022-09-12T14:14:31.515Z,3.08
2022-09-12T14:17:01.287Z,2.90
2022-09-12T14:19:29.417Z,2.75
2022-09-12T14:22:02.464Z,2.40
2022-09-12T14:24:32.084Z,2.35
2022-09-12T14:26:59.480Z,2.70
2022-09-12T14:29:27.170Z,2.38
2022-09-12T14:32:05.868Z,2.92
2022-09-12T14:34:32.769Z,2.20
2022-09-12T14:37:00.023Z,2.25
2022-09-12T14:39:33.876Z,1.70
2022-09-12T14:42:11.607Z,2.25
2022-09-12T14:44:39.599Z,2.13
2022-09-12T14:47:25.098Z,1.70
2022-09-12T14:52:30.433Z,2.10
2022-09-12T14:55:02.483Z,1.70
2022-09-12T14:57:40.783Z,1.88
2022-09-12T15:00:22.851Z,1.85
2022-09-12T15:02:51.948Z,1.98
2022-09-12T15:05:26.670Z,2.08
2022-09-12T15:08:01.019Z,2.00
2022-09-12T15:10:36.341Z,2.10
2022-09-12T15:13:05.889Z,2.10
2022-09-12T15:15:33.078Z,1.90
2022-09-12T15:18:02.373Z,2.10
2022-09-12T15:20:44.390Z,1.77
2022-09-12T15:23:31.481Z,1.80
2022-09-12T15:25:58.529Z,2.33
2022-09-12T15:28:26.969Z,2.05
2022-09-12T15:30:56.224Z,2.30
2022-09-12T15:33:25.254Z,1.63
2022-09-12T15:35:53.232Z,1.80
2022-09-12T15:38:25.633Z,2.00
2022-09-12T15:40:54.161Z,2.00
2022-09-12T15:43:22.980Z,2.15
2022-09-12T15:45:52.382Z,2.22
2022-09-12T15:48:21.167Z,1.70
2022-09-12T15:50:48.626Z,1.92
2022-09-12T15:53:17.103Z,2.10
2022-09-12T15:55:44.920Z,1.95
2022-09-12T15:58:12.192Z,2.42
2022-09-12T16:00:39.184Z,2.35
2022-09-12T16:03:06.752Z,2.13
2022-09-12T16:05:33.642Z,1.98
2022-09-12T16:08:00.503Z,2.38
2022-09-12T16:10:30.514Z,2.20
2022-09-12T16:12:58.226Z,2.17
2022-09-12T16:15:26.219Z,2.10
2022-09-12T16:17:53.515Z,2.85
2022-09-12T16:20:21.704Z,2.40
2022-09-12T16:22:48.932Z,2.40
2022-09-12T16:25:17.540Z,2.90
2022-09-12T16:27:44.967Z,2.47
2022-09-12T16:30:13.195Z,2.90
2022-09-12T16:32:40.322Z,2.60
2022-09-12T16:35:08.127Z,2.70
2022-09-12T16:37:35.094Z,2.17
2022-09-12T16:40:06.186Z,2.50
2022-09-12T16:42:33.015Z,2.67
2022-09-12T16:45:00.137Z,2.50
2022-09-12T16:47:27.107Z,2.70
2022-09-12T16:49:53.891Z,2.70
2022-09-12T16:52:20.690Z,2.13
2022-09-12T16:54:47.519Z,2.10
2022-09-12T16:57:14.378Z,2.40
2022-09-12T16:59:41.722Z,2.28
2022-09-12T17:02:14.182Z,2.67
2022-09-12T17:04:41.794Z,2.50
2022-09-12T17:07:10.169Z,2.60
2022-09-12T17:09:36.935Z,2.60
2022-09-12T17:12:04.216Z,2.90
2022-09-12T17:14:30.995Z,2.80
2022-09-12T17:16:57.817Z,2.60
2022-09-12T17:19:28.245Z,2.70
2022-09-12T17:21:56.381Z,2.80
2022-09-12T17:24:23.861Z,2.40
2022-09-12T17:26:51.627Z,2.80
2022-09-12T17:29:18.392Z,2.70
2022-09-12T17:31:45.980Z,2.50
2022-09-12T17:34:14.716Z,2.50
2022-09-12T17:36:46.344Z,2.55
2022-09-12T17:39:15.159Z,2.17
2022-09-12T17:41:42.981Z,2.53
2022-09-12T17:44:13.915Z,2.75
2022-09-12T17:46:41.420Z,2.40
2022-09-12T17:49:14.334Z,2.25
2022-09-12T17:51:42.080Z,3.10
2022-09-12T17:54:14.472Z,3.20
2022-09-12T17:56:42.944Z,3.13
2022-09-12T17:59:19.080Z,2.75
2022-09-12T18:02:05.450Z,2.88
2022-09-12T18:04:32.623Z,2.75
2022-09-12T18:07:00.594Z,2.20
2022-09-12T18:09:28.599Z,2.30
2022-09-12T18:11:56.390Z,2.00
2022-09-12T18:14:29.226Z,2.10
2022-09-12T18:17:01.393Z,2.00
2022-09-12T18:20:02.693Z,1.90
2022-09-12T18:22:29.894Z,2.13
2022-09-12T18:24:57.009Z,2.30
2022-09-12T18:27:24.014Z,2.35
2022-09-12T18:30:10.311Z,2.38
2022-09-12T18:32:37.956Z,2.20
2022-09-12T18:35:06.104Z,2.50
2022-09-12T18:37:33.595Z,1.85
2022-09-12T18:40:00.551Z,2.30
2022-09-12T18:42:27.418Z,2.47
2022-09-12T18:44:54.627Z,2.20
2022-09-12T18:47:21.514Z,1.90
2022-09-12T18:49:48.665Z,1.90
2022-09-12T18:52:18.008Z,1.70
2022-09-12T18:54:45.742Z,2.10
2022-09-12T18:57:12.529Z,1.92
2022-09-12T18:59:39.296Z,2.35
2022-09-12T19:02:07.539Z,2.00
2022-09-12T19:04:34.410Z,2.83
2022-09-12T19:07:01.807Z,4.90
2022-09-12T19:09:29.212Z,8.90
2022-09-12T19:11:56.363Z,12.45
2022-09-12T19:14:26.183Z,14.10
2022-09-12T19:16:53.948Z,13.68
2022-09-12T19:19:21.661Z,13.20
2022-09-12T19:21:48.505Z,14.75
2022-09-12T19:24:16.739Z,16.00
2022-09-12T19:26:43.730Z,17.10
2022-09-12T19:29:12.295Z,17.35
2022-09-12T19:31:39.138Z,14.63
2022-09-12T19:34:07.911Z,11.88
2022-09-12T19:36:51.169Z,10.45
2022-09-12T19:39:19.974Z,9.88
2022-09-12T19:41:47.584Z,7.60
2022-09-12T19:44:14.748Z,6.78
2022-09-12T19:46:41.903Z,5.68
2022-09-12T19:49:11.583Z,4.88
2022-09-12T19:51:38.440Z,3.95
2022-09-12T19:54:05.780Z,4.22
2022-09-12T19:56:32.732Z,4.32
2022-09-12T19:58:59.591Z,4.70
2022-09-12T20:01:30.748Z,4.97
2022-09-12T20:03:58.792Z,4.68
2022-09-12T20:06:26.698Z,4.63
2022-09-12T20:08:53.862Z,5.10
2022-09-12T20:11:23.709Z,5.13
2022-09-12T20:13:51.259Z,4.85
2022-09-12T20:16:22.788Z,5.38
2022-09-12T20:18:56.197Z,6.00
2022-09-12T20:21:31.387Z,5.53
2022-09-12T20:24:01.948Z,6.50
2022-09-12T20:26:28.735Z,7.03
2022-09-12T20:28:56.243Z,7.60
2022-09-12T20:31:23.111Z,7.32
2022-09-12T20:33:52.067Z,8.30
2022-09-12T20:36:21.620Z,8.02
2022-09-12T20:38:51.879Z,9.25
2022-09-12T20:41:20.746Z,9.35
2022-09-12T20:43:52.520Z,8.65
2022-09-12T20:46:22.961Z,8.10
2022-09-12T20:48:51.365Z,8.27
2022-09-12T20:51:19.944Z,8.45
2022-09-12T20:53:47.531Z,8.52
2022-09-12T20:56:15.215Z,8.35
2022-09-12T20:58:44.483Z,6.65
2022-09-12T21:01:14.366Z,6.88
2022-09-12T21:03:42.946Z,5.78
2022-09-12T21:06:12.719Z,5.22
2022-09-12T21:08:39.722Z,4.53
2022-09-12T21:11:07.504Z,4.85
2022-09-12T21:13:34.946Z,5.28
2022-09-12T21:16:08.165Z,5.15
2022-09-12T21:18:36.163Z,5.80
2022-09-12T21:21:04.583Z,5.13
2022-09-12T21:23:32.181Z,4.13
2022-09-12T21:26:00.183Z,3.40
2022-09-12T21:28:27.361Z,2.75
2022-09-12T21:30:54.601Z,2.50
2022-09-12T21:33:22.251Z,1.90
2022-09-12T21:35:50.240Z,1.75
2022-09-12T21:38:18.935Z,2.38
2022-09-12T21:40:47.216Z,2.20
2022-09-12T21:43:14.675Z,2.22
2022-09-12T21:45:41.523Z,2.95
2022-09-12T21:48:08.781Z,2.97
2022-09-12T21:50:35.852Z,3.50
2022-09-12T21:53:02.705Z,3.05
2022-09-12T21:55:29.933Z,3.53
2022-09-12T21:57:56.766Z,3.80
2022-09-12T22:00:24.118Z,3.22
2022-09-12T22:02:51.474Z,3.20
2022-09-12T22:05:20.511Z,2.95
2022-09-12T22:07:47.656Z,2.60
2022-09-12T22:10:15.515Z,2.92
2022-09-12T22:12:46.153Z,2.90
2022-09-12T22:15:39.076Z,2.35
2022-09-12T22:18:01.841Z,2.30
2022-09-12T22:20:28.766Z,2.42
2022-09-12T22:23:13.992Z,2.20
2022-09-12T22:25:41.232Z,2.20
2022-09-12T22:28:08.074Z,1.90
2022-09-12T22:30:38.842Z,1.95
2022-09-12T22:33:09.192Z,1.88
2022-09-12T22:35:39.307Z,2.03
2022-09-12T22:38:06.512Z,2.50
2022-09-12T22:40:33.428Z,1.33
2022-09-12T22:43:03.521Z,1.52
2022-09-12T22:45:30.571Z,1.75
2022-09-12T22:48:00.749Z,1.70
2022-09-12T22:50:28.376Z,1.77
2022-09-12T22:52:58.064Z,2.13
2022-09-12T22:55:25.073Z,1.70
2022-09-12T22:57:52.271Z,2.35
2022-09-12T23:00:20.856Z,1.95
2022-09-12T23:02:47.875Z,1.90
2022-09-12T23:05:15.211Z,2.13
2022-09-12T23:07:42.434Z,2.70
2022-09-12T23:10:11.164Z,2.13
2022-09-12T23:12:38.416Z,2.58
2022-09-12T23:15:08.328Z,2.40
2022-09-12T23:17:35.236Z,3.30
2022-09-12T23:20:05.567Z,2.95
2022-09-12T23:22:32.491Z,3.30
2022-09-12T23:25:02.330Z,2.50
2022-09-12T23:27:30.501Z,2.83
2022-09-12T23:29:58.527Z,3.10
2022-09-12T23:32:26.626Z,2.58
2022-09-12T23:34:53.778Z,2.90
2022-09-12T23:37:21.908Z,3.00
2022-09-12T23:39:49.963Z,2.55
2022-09-12T23:42:19.910Z,2.35
2022-09-12T23:44:46.894Z,2.50
2022-09-12T23:47:18.186Z,2.45
2022-09-12T23:49:46.407Z,3.55
2022-09-12T23:52:14.964Z,2.58
2022-09-12T23:54:42.002Z,2.85
2022-09-12T23:57:10.713Z,3.05
2022-09-12T23:59:37.958Z,3.25
